Anjou, Canada
Current Conditions -  °F | °C
As of 10:00 AM on Monday 24 Nov 2014 (Local Time) from CYHU Reporting Station
Light Rain Light Rain  
Wind Chill: 52°   Ceiling: 5000
Heat Index: 52°   Visibility: 9mi
Dew Point: 48°   Wind: 25mph
Humidity: 88%   Direction: 160°SSE
Pressure: 29.41"   Gusts: 31mph
Location:  45.6°N, 73.53°W
Report Text: CYHU 241500Z AUTO 16022G27KT 9SM -RA BKN050 OVC055 11/09 A2941 RMK PRESFR SLP961 DENSITY ALT 100FT
Loading
Personal Weather Stations






























Interactive Weather Map New forecast layout! Learn more

10-Day Weather Forecast

Advertisements
Track Severe Weather on mobile